• Join FlightAware (Why Join?)
  • Login
  • US Flag 
07:30AM EST


 

Airport Tracker/Info


-or-


 

Live Flight TrackerFlight Track Log ✈ N75ZM ✈ 29-Sep-2013 ✈ KCRG - KPDK

Flight Track Log - Related Links

Times and Time Zones

All times are in EDT time to prevent confusion due to time zone crossing. See the N75ZM flight status page for this flight to view local times or setup timezone preferences in your user account.

Time Position Orientation Groundspeed Altitude Reporting Facility
EDT Latitude Longitude Course Direction KTS MPH feet Rate Location/Type
10:59AM 30.3383 -81.5111 355° North 70 81 800  Level Jacksonville Center
11:01AM 30.3803 -81.5153 355° North 122 140 1,900 720 Climbing Jacksonville Center
11:02AM 30.4219 -81.5194 355° North 132 152 2,700 720 Climbing Jacksonville Center
11:03AM 30.4553 -81.5189 North 131 151 3,400 660 Climbing Jacksonville Center
11:04AM 30.4889 -81.5208 357° North 131 151 4,000 540 Climbing Jacksonville Center
11:04AM 30.5244 -81.5228 357° North 140 161 4,400 420 Climbing Jacksonville Center
11:06AM 30.5722 -81.5197 North 145 167 5,000 480 Climbing Jacksonville Center
11:07AM 30.6081 -81.5386 336° Northwest 149 171 5,500 480 Climbing Jacksonville Center
11:08AM 30.6417 -81.5597 332° Northwest 140 161 6,000 480 Climbing Jacksonville Center
11:09AM 30.6772 -81.5811 333° Northwest 139 160 6,500 360 Climbing Jacksonville Center
11:10AM 30.7089 -81.6047 327° Northwest 140 161 6,800 420 Climbing Jacksonville Center
11:10AM 30.7067 -81.6022 136° Southeast 138 159 6,900 480 Climbing Jacksonville Center
11:11AM 30.7383 -81.6236 330° Northwest 140 161 7,300 420 Climbing Jacksonville Center
11:12AM 30.7700 -81.6450 330° Northwest 140 161 7,800 480 Climbing Jacksonville Center
11:13AM 30.8036 -81.6686 329° Northwest 140 161 8,300 480 Climbing Jacksonville Center
11:14AM 30.8372 -81.6900 331° Northwest 140 161 8,800 360 Climbing Jacksonville Center
11:15AM 30.8728 -81.7139 330° Northwest 140 161 9,100 120 Climbing Jacksonville Center
11:16AM 30.9128 -81.7375 333° Northwest 147 169 9,100  Level Jacksonville Center
11:17AM 30.9525 -81.7614 333° Northwest 153 176 9,100  Level Jacksonville Center
11:18AM 30.9925 -81.7900 328° Northwest 165 190 9,100  Level Jacksonville Center
11:19AM 31.0325 -81.8161 331° Northwest 165 190 9,100  Level Jacksonville Center
11:20AM 31.0722 -81.8422 331° Northwest 165 190 9,100  Level Jacksonville Center
11:21AM 31.1183 -81.8686 334° Northwest 165 190 9,100  Level Jacksonville Center
11:22AM 31.1542 -81.8900 333° Northwest 165 190 9,100  Level Jacksonville Center
11:23AM 31.1961 -81.9186 330° Northwest 165 190 9,100  Level Jacksonville Center
11:24AM 31.2403 -81.9472 331° Northwest 165 190 9,100  Level Jacksonville Center
11:25AM 31.2781 -81.9736 329° Northwest 165 190 9,100  Level Jacksonville Center
11:26AM 31.3200 -82.0025 330° Northwest 165 190 9,100 -300 Level Jacksonville Center
11:27AM 31.3578 -82.0289 329° Northwest 170 196 8,600 -540 Descending Jacksonville Center
11:28AM 31.4081 -82.0575 334° Northwest 175 201 8,100 -300 Descending Jacksonville Center
11:29AM 31.4500 -82.0864 330° Northwest 182 209 8,100  Level Jacksonville Center
11:30AM 31.4897 -82.1153 328° Northwest 177 204 8,100  Level Jacksonville Center
11:31AM 31.5275 -82.1369 334° Northwest 167 192 8,100  Level Jacksonville Center
11:32AM 31.5653 -82.1636 329° Northwest 167 192 8,100  Level Jacksonville Center
11:33AM 31.6114 -82.1925 332° Northwest 167 192 8,100  Level Jacksonville Center
11:34AM 31.6511 -82.2214 328° Northwest 167 192 8,100  Level Jacksonville Center
11:35AM 31.6931 -82.2481 332° Northwest 162 186 8,100  Level Jacksonville Center
11:36AM 31.7286 -82.2722 330° Northwest 162 186 8,100  Level Jacksonville Center
11:37AM 31.7664 -82.2964 331° Northwest 162 186 8,100  Level Jacksonville Center
11:38AM 31.8061 -82.3231 330° Northwest 162 186 8,100 -60 Level Jacksonville Center
11:39AM 31.8481 -82.3522 329° Northwest 162 186 8,000  Descending Jacksonville Center
11:40AM 31.8919 -82.3811 331° Northwest 162 186 8,100  Climbing Jacksonville Center
11:41AM 31.9339 -82.4078 332° Northwest 167 192 8,100  Level Jacksonville Center
11:42AM 31.9717 -82.4347 329° Northwest 167 192 8,100  Level Jacksonville Center
11:43AM 32.0114 -82.4614 330° Northwest 167 192 8,100 -60 Level Jacksonville Center
11:44AM 32.0489 -82.4881 329° Northwest 161 185 8,000  Descending Jacksonville Center
11:45AM 32.0886 -82.5150 330° Northwest 166 191 8,100  Climbing Jacksonville Center
11:46AM 32.1328 -82.5417 333° Northwest 166 191 8,100  Level Jacksonville Center
11:47AM 32.1683 -82.5686 327° Northwest 166 191 8,200  Climbing Jacksonville Center
11:48AM 32.2081 -82.5956 330° Northwest 166 191 8,200  Level Jacksonville Center
11:50AM 32.3167 -82.6500 337° Northwest 168 193 8,200  Level Atlanta TRACON
11:51AM 32.3500 -82.6833 320° Northwest 166 191 8,200  Level Atlanta TRACON
11:52AM 32.3833 -82.7167 320° Northwest 167 192 8,200  Level Atlanta TRACON
11:53AM 32.4333 -82.7333 344° North 166 191 8,200 -60 Level Atlanta TRACON
11:54AM 32.4667 -82.7667 320° Northwest 170 196 8,100 -60 Descending Atlanta TRACON
11:55AM 32.5000 -82.8000 320° Northwest 167 192 8,100  Level Atlanta TRACON
11:56AM 32.5500 -82.8167 344° North 167 192 8,100  Level Atlanta TRACON
11:57AM 32.5833 -82.8500 320° Northwest 166 191 8,100 -180 Level Atlanta TRACON
11:58AM 32.6167 -82.9000 308° West 175 201 7,800 -300 Descending Atlanta TRACON
11:59AM 32.6500 -82.9333 320° Northwest 177 204 7,600 -300 Descending Atlanta TRACON
12:00PM 32.6833 -82.9667 320° Northwest 177 204 7,300 -300 Descending Atlanta TRACON
12:01PM 32.7333 -83.0167 320° Northwest 176 203 7,000 -300 Descending Atlanta TRACON
12:02PM 32.7667 -83.0500 320° Northwest 174 200 6,800 -240 Descending Atlanta TRACON
12:03PM 32.8000 -83.1000 308° West 171 197 6,500 -300 Descending Atlanta TRACON
12:04PM 32.8333 -83.1333 320° Northwest 171 197 6,200 -180 Descending Atlanta TRACON
12:05PM 32.8667 -83.1667 320° Northwest 167 192 6,200 -60 Level Atlanta TRACON
12:06PM 32.9000 -83.2000 320° Northwest 161 185 6,100 -60 Descending Atlanta TRACON
12:07PM 32.9333 -83.2500 308° West 159 183 6,100  Level Atlanta TRACON
12:08PM 32.9667 -83.2833 320° Northwest 156 180 6,100  Level Atlanta TRACON
12:09PM 33.0000 -83.3167 320° Northwest 157 181 6,100  Level Atlanta TRACON
12:10PM 33.0333 -83.3500 320° Northwest 157 181 6,200  Climbing Atlanta TRACON
12:11PM 33.0667 -83.3833 320° Northwest 158 182 6,100 -60 Descending Atlanta TRACON
12:12PM 33.1000 -83.4167 320° Northwest 157 181 6,100  Level Atlanta TRACON
12:13PM 33.1167 -83.4500 301° West 159 183 6,100  Level Atlanta TRACON
12:14PM 33.1500 -83.5000 309° West 153 176 6,100  Level Atlanta TRACON
12:15PM 33.1833 -83.5333 320° Northwest 160 184 6,100  Level Atlanta TRACON
12:16PM 33.2167 -83.5667 320° Northwest 159 183 6,200  Climbing Atlanta TRACON
12:17PM 33.2500 -83.6000 320° Northwest 164 189 6,100 -60 Descending Atlanta TRACON
12:18PM 33.2833 -83.6333 320° Northwest 164 189 6,100  Level Atlanta TRACON
12:19PM 33.3167 -83.6667 320° Northwest 160 184 6,200  Climbing Atlanta TRACON
12:20PM 33.3500 -83.7167 309° West 159 183 6,100 -240 Descending Atlanta TRACON
12:21PM 33.3833 -83.7333 337° Northwest 170 196 5,700 -480 Descending Atlanta TRACON
12:22PM 33.4333 -83.7667 331° Northwest 177 204 5,200 -480 Descending Atlanta TRACON
12:23PM 33.4667 -83.8000 320° Northwest 179 206 4,800 -540 Descending Atlanta TRACON
12:24PM 33.5167 -83.8333 331° Northwest 182 209 4,200 -360 Descending Atlanta TRACON
12:25PM 33.5667 -83.8667 331° Northwest 175 201 4,100  Descending Atlanta TRACON
12:26PM 33.6000 -83.8833 337° Northwest 169 194 4,200  Climbing Atlanta TRACON
12:27PM 33.6500 -83.8833 360° North 166 191 4,100 -60 Descending Atlanta TRACON
12:28PM 33.7000 -83.9000 345° North 162 186 4,100  Level Atlanta TRACON
12:29PM 33.7500 -83.9000 360° North 166 191 4,100  Level Atlanta TRACON
12:30PM 33.7833 -83.9333 320° Northwest 173 199 4,100 -60 Level Atlanta TRACON
12:31PM 33.8000 -83.9833 292° West 176 203 4,000 -300 Descending Atlanta TRACON
12:32PM 33.8000 -84.0500 270° West 187 215 3,500 -480 Descending Atlanta TRACON
12:33PM 33.8167 -84.1000 292° West 182 209 3,100 -180 Descending Atlanta TRACON
12:34PM 33.8167 -84.1667 270° West 174 200 3,200  Climbing Atlanta TRACON
12:35PM 33.8333 -84.2167 292° West 164 189 3,100 -420 Descending Atlanta TRACON
12:36PM 33.8333 -84.2667 270° West 141 162 2,500 -600 Descending Atlanta TRACON
12:37PM 33.8333 -84.3000 270° West 119 137 2,000 -540 Descending Atlanta TRACON
12:39PM 33.8667 -84.3000 286° West  Level FlightAware Approximate
12:46PM 33.8756 -84.3020 286° West  Level Estimated